San Juan Enterprise — WDD9563 — position and weather

sailwx.info

Track history (hours):
 
Tides and Currents Weather Stations Pressure Air Temp Water Temp Dewpoint Dewpoint Depression Visibility Wind Speed Wind Dir Waves Ship Positions

San Juan Enterprise

Owner: SAN JUAN MARINE FREIGHT CO LLC, ANACORTES, WA. More information available from US FCC via Universal Licensing System and Coast Guard Vessel Documentation Center.

Last reported at 2015-Jul-07 21:33 UTC. Time now 2015-Jul-07 22:00 UTC.
Position N 48°31' W 122°41'.

Length 30 m.

MMSI: 367313160.

Date/timePositionNaut miles runAvg speedWind from/ knotsBaromVisibWave heightAir tempDewpointWater temp
2015-Jul-07 21:33N 48°31' W 122°41'3 3.3
2015-Jul-07 20:33N 48°31' W 122°37'4 3.5
2015-Jul-07 19:33N 48°33' W 122°41'0 0.0
2015-Jul-07 18:33N 48°33' W 122°41'3 3.4
2015-Jul-07 17:33N 48°31' W 122°37'0 0.0
2015-Jul-07 16:33N 48°31' W 122°37'0 0.4
2015-Jul-07 15:33N 48°31' W 122°36'0 0.0
2015-Jul-07 14:33N 48°31' W 122°36'0 0.0
2015-Jul-07 13:33N 48°31' W 122°36'0 0.0
2015-Jul-07 12:33N 48°31' W 122°36'0 0.0
2015-Jul-07 11:33N 48°31' W 122°36'0 0.0
2015-Jul-07 10:33N 48°31' W 122°36'0 0.0
2015-Jul-07 09:33N 48°31' W 122°36'0 0.0
2015-Jul-07 08:33N 48°31' W 122°36'0 0.0
2015-Jul-07 07:33N 48°31' W 122°36'0 0.0
2015-Jul-07 06:33N 48°31' W 122°36'0 0.0
2015-Jul-07 05:33N 48°31' W 122°36'0 0.0
2015-Jul-07 04:33N 48°31' W 122°36'0 0.0
2015-Jul-07 03:33N 48°31' W 122°36'0 0.0
2015-Jul-07 02:33N 48°31' W 122°36'0 0.0
2015-Jul-07 01:33N 48°31' W 122°36'0 0.0
2015-Jul-07 00:33N 48°31' W 122°36'0 0.0
2015-Jul-06 23:33N 48°31' W 122°36'0 0.0
2015-Jul-06 22:33N 48°31' W 122°36'0 0.0
2015-Jul-06 21:33N 48°31' W 122°36'0 0.0
2015-Jul-06 20:33N 48°31' W 122°36'0 0.0
2015-Jul-06 19:33N 48°31' W 122°36'0 0.0
2015-Jul-06 18:33N 48°31' W 122°36'0 0.0
2015-Jul-06 17:33N 48°31' W 122°36'0 0.0
2015-Jul-06 16:33N 48°31' W 122°36'0 0.0
2015-Jul-06 15:33N 48°31' W 122°36'0 0.0
2015-Jul-06 14:33N 48°31' W 122°36'0 0.0
2015-Jul-06 13:33N 48°31' W 122°36'0 0.0
2015-Jul-06 12:33N 48°31' W 122°36'0 0.0
2015-Jul-06 11:33N 48°31' W 122°36'0 0.0
2015-Jul-06 10:33N 48°31' W 122°36'0 0.0
2015-Jul-06 09:33N 48°31' W 122°36'0 0.0
2015-Jul-06 08:33N 48°31' W 122°36'0 0.0
2015-Jul-06 07:33N 48°31' W 122°36'0 0.0
2015-Jul-06 06:33N 48°31' W 122°36'0 0.0
2015-Jul-06 05:33N 48°31' W 122°36'0 0.0
2015-Jul-06 04:33N 48°31' W 122°36'0 0.0
2015-Jul-06 03:33N 48°31' W 122°36'0 0.0
2015-Jul-06 02:32N 48°31' W 122°36'0 0.0
2015-Jul-06 01:33N 48°31' W 122°36'0 0.0
2015-Jul-06 00:33N 48°31' W 122°36'0 0.0
2015-Jul-05 23:33N 48°31' W 122°36'0 0.0
2015-Jul-05 22:33N 48°31' W 122°36'0 0.0
2015-Jul-05 21:33N 48°31' W 122°36'0 0.0
2015-Jul-05 20:33N 48°31' W 122°36'0 0.0
2015-Jul-05 19:33N 48°31' W 122°36'3 3.4
2015-Jul-05 18:33N 48°32' W 122°41'6 6.1
2015-Jul-05 17:33N 48°35' W 122°49'6 6.4
2015-Jul-05 16:33N 48°41' W 122°54'1 0.6
2015-Jul-05 15:21N 48°41' W 122°54'0 0.0
2015-Jul-05 14:30N 48°41' W 122°54'0 0.0
2015-Jul-05 13:30N 48°41' W 122°54'0 0.0
2015-Jul-05 12:33N 48°42' W 122°54'0 0.0
2015-Jul-05 11:27N 48°42' W 122°54'0 0.0
2015-Jul-05 10:27N 48°41' W 122°54'0 0.0
2015-Jul-05 09:30N 48°41' W 122°54'0 0.0
2015-Jul-05 08:33N 48°42' W 122°54'0 0.0
2015-Jul-05 07:33N 48°41' W 122°54'0 0.0
2015-Jul-05 06:33N 48°41' W 122°54'0 0.2
2015-Jul-05 05:33N 48°41' W 122°55'0 0.1
2015-Jul-05 04:34N 48°41' W 122°54'0 0.0
2015-Jul-05 03:33N 48°41' W 122°54'0 0.0
2015-Jul-05 02:33N 48°41' W 122°54'0 0.2
2015-Jul-05 01:33N 48°41' W 122°54'0 0.0
2015-Jul-05 00:33N 48°41' W 122°54'0 0.0
2015-Jul-04 23:32N 48°42' W 122°54'0 0.0
2015-Jul-04 22:17N 48°42' W 122°54'0 0.0
2015-Jul-04 21:30N 48°41' W 122°54'0 0.0
2015-Jul-04 20:08N 48°41' W 122°54'0 0.0
2015-Jul-04 19:22N 48°41' W 122°54'0 0.0
2015-Jul-04 18:31N 48°41' W 122°54'0 0.0
2015-Jul-04 17:32N 48°42' W 122°54'3 3.4
2015-Jul-04 16:33N 48°38' W 122°53'5 5.0
2015-Jul-04 15:32N 48°36' W 122°60'1 0.9
2015-Jul-04 14:31N 48°37' W 123°00'0 0.0
2015-Jul-04 13:31N 48°37' W 123°00'0 0.0
2015-Jul-04 12:31N 48°37' W 123°00'0 0.0
2015-Jul-04 11:31N 48°37' W 123°00'0 0.0
2015-Jul-04 10:31N 48°37' W 123°00'0 0.0
2015-Jul-04 09:31N 48°37' W 123°00'0 0.0
2015-Jul-04 08:31N 48°37' W 123°00'0 0.0
2015-Jul-04 07:33N 48°37' W 123°00'0 0.0
2015-Jul-04 06:33N 48°37' W 123°00'0 0.3
2015-Jul-04 05:33N 48°37' W 123°00'0 0.1
2015-Jul-04 04:33N 48°37' W 123°00'0 0.0
2015-Jul-04 03:32N 48°37' W 123°00'0 0.0
2015-Jul-04 02:30N 48°37' W 123°00'0 0.0
2015-Jul-04 01:31N 48°37' W 123°00'0 0.0
2015-Jul-04 00:33N 48°37' W 123°00'0 0.1
2015-Jul-03 23:31N 48°37' W 123°00'6 6.6
2015-Jul-03 22:33N 48°36' W 122°51'7 6.5
2015-Jul-03 21:33N 48°32' W 122°42'4 4.2
2015-Jul-03 20:33N 48°31' W 122°36'1 0.6
2015-Jul-03 19:33N 48°31' W 122°36'1 0.6
2015-Jul-03 18:29N 48°31' W 122°36'0 0.0
2015-Jul-03 17:23N 48°31' W 122°36'0 0.0
2015-Jul-03 16:23N 48°31' W 122°36'0 0.0
2015-Jul-03 15:29N 48°31' W 122°36'0 0.0
2015-Jul-03 14:29N 48°31' W 122°36'0 0.0
2015-Jul-03 13:29N 48°31' W 122°36'0 0.0
2015-Jul-03 12:29N 48°31' W 122°36'0 0.0
2015-Jul-03 11:29N 48°31' W 122°36'0 0.0
2015-Jul-03 10:29N 48°31' W 122°36'0 0.0
2015-Jul-03 09:29N 48°31' W 122°36'0 0.0
2015-Jul-03 08:29N 48°31' W 122°36'0 0.0
2015-Jul-03 07:17N 48°31' W 122°36'0 0.0
2015-Jul-03 06:29N 48°31' W 122°36'0 0.0
2015-Jul-03 05:29N 48°31' W 122°36'0 0.0
2015-Jul-03 04:17N 48°31' W 122°36'0 0.0
2015-Jul-03 03:23N 48°31' W 122°36'0 0.0
2015-Jul-03 02:23N 48°31' W 122°36'0 0.0
2015-Jul-03 01:17N 48°31' W 122°36'0 0.0
2015-Jul-03 00:29N 48°31' W 122°36'6 6.3
2015-Jul-02 23:33N 48°33' W 122°45'4 3.6
2015-Jul-02 22:33N 48°35' W 122°49'2 2.0
2015-Jul-02 21:33N 48°35' W 122°46'7 7.3
2015-Jul-02 20:33N 48°31' W 122°36'4 3.6
2015-Jul-02 19:32N 48°33' W 122°41'0 0.0
2015-Jul-02 18:33N 48°33' W 122°41'3 3.4
2015-Jul-02 17:33N 48°31' W 122°37'0 0.0
2015-Jul-02 16:33N 48°31' W 122°37'0 0.3
2015-Jul-02 15:30N 48°31' W 122°36'0 0.0
2015-Jul-02 14:24N 48°31' W 122°36'0 0.0
2015-Jul-02 13:24N 48°31' W 122°36'0 0.0
2015-Jul-02 12:30N 48°31' W 122°36'0 0.0
2015-Jul-02 11:30N 48°31' W 122°36'0 0.0
2015-Jul-02 10:18N 48°31' W 122°36'0 0.0
2015-Jul-02 09:24N 48°31' W 122°36'0 0.0
2015-Jul-02 08:30N 48°31' W 122°36'0 0.0
2015-Jul-02 07:30N 48°31' W 122°36'0 0.0
2015-Jul-02 06:30N 48°31' W 122°36'0 0.0
2015-Jul-02 05:30N 48°31' W 122°36'0 0.0
2015-Jul-02 04:29N 48°31' W 122°36'0 0.0
2015-Jul-02 03:29N 48°31' W 122°36'0 0.0
2015-Jul-02 02:30N 48°31' W 122°36'0 0.0
2015-Jul-02 01:23N 48°31' W 122°36'0 0.0
2015-Jul-02 00:33N 48°31' W 122°36'7 6.6
2015-Jul-01 23:33N 48°34' W 122°46'3 2.7
2015-Jul-01 22:33N 48°35' W 122°49'0 0.0
2015-Jul-01 21:33N 48°35' W 122°49'5 5.3
2015-Jul-01 20:33N 48°32' W 122°42'4 4.1
2015-Jul-01 19:33N 48°31' W 122°36'0 0.0
2015-Jul-01 18:32N 48°31' W 122°36'0 0.0
2015-Jul-01 17:32N 48°31' W 122°36'0 0.0
2015-Jul-01 16:32N 48°31' W 122°36'0 0.0
2015-Jul-01 15:32N 48°31' W 122°36'0 0.0
2015-Jul-01 14:32N 48°31' W 122°36'0 0.0
2015-Jul-01 13:32N 48°31' W 122°36'0 0.0
2015-Jul-01 12:32N 48°31' W 122°36'0 0.0
2015-Jul-01 11:32N 48°31' W 122°36'0 0.0
2015-Jul-01 10:32N 48°31' W 122°36'0 0.0
2015-Jul-01 09:32N 48°31' W 122°36'0 0.0
2015-Jul-01 08:32N 48°31' W 122°36'0 0.0
2015-Jul-01 07:32N 48°31' W 122°36'0 0.0
2015-Jul-01 06:17N 48°31' W 122°36'0 0.0
2015-Jul-01 05:32N 48°31' W 122°36'0 0.0
2015-Jul-01 04:32N 48°31' W 122°36'0 0.0
2015-Jul-01 03:32N 48°31' W 122°36'0 0.0
2015-Jul-01 02:32N 48°31' W 122°36'0 0.0
2015-Jul-01 01:32N 48°31' W 122°36'0 0.0
2015-Jul-01 00:32N 48°31' W 122°36'0 0.0
2015-Jun-30 23:26N 48°31' W 122°36'0 0.0
2015-Jun-30 22:32N 48°31' W 122°36'0 0.0
2015-Jun-30 21:32N 48°31' W 122°36'0 0.0
2015-Jun-30 20:33N 48°31' W 122°36'8 7.8
2015-Jun-30 19:33N 48°32' W 122°48'7 7.3
2015-Jun-30 18:33N 48°32' W 122°59'1 0.9
2015-Jun-30 17:33N 48°32' W 122°60'0 0.0
2015-Jun-30 17:14N 48°32' W 122°60'3 5.0
2015-Jun-30 16:33N 48°33' W 122°55'7 6.9
2015-Jun-30 15:33N 48°32' W 122°45'6 6.0
2015-Jun-30 14:33N 48°31' W 122°36'0 0.0
2015-Jun-30 13:32N 48°31' W 122°36'0 0.0
2015-Jun-30 12:32N 48°31' W 122°36'0 0.0
2015-Jun-30 11:32N 48°31' W 122°36'0 0.0
2015-Jun-30 10:32N 48°31' W 122°36'0 0.0
2015-Jun-30 09:32N 48°31' W 122°36'0 0.0
2015-Jun-30 08:32N 48°31' W 122°36'0 0.0
2015-Jun-30 07:32N 48°31' W 122°36'0 0.0
2015-Jun-30 06:29N 48°31' W 122°36'0 0.0
2015-Jun-30 05:32N 48°31' W 122°36'0 0.0
2015-Jun-30 04:32N 48°31' W 122°36'0 0.0
2015-Jun-30 03:32N 48°31' W 122°36'0 0.0
2015-Jun-30 02:26N 48°31' W 122°36'0 0.0
2015-Jun-30 01:32N 48°31' W 122°36'0 0.0
2015-Jun-30 00:33N 48°31' W 122°36'6 5.7
2015-Jun-29 23:33N 48°33' W 122°45'4 3.6
2015-Jun-29 22:33N 48°35' W 122°49'0 0.0
2015-Jun-29 22:09N 48°35' W 122°49'1 1.8
2015-Jun-29 21:33N 48°36' W 122°49'2 8.9
2015-Jun-29 21:22N 48°35' W 122°50'1 0.7
2015-Jun-29 20:33N 48°34' W 122°50'2 1.9
2015-Jun-29 19:33N 48°36' W 122°49'0 9.7
2015-Jun-29 19:31N 48°36' W 122°49'0 0.4
2015-Jun-29 18:33N 48°35' W 122°49'1 3.6
2015-Jun-29 18:12N 48°36' W 122°48'6 9.8
2015-Jun-29 17:33N 48°32' W 122°40'2 2.5
2015-Jun-29 16:36N 48°31' W 122°37'0 3.9
2015-Jun-29 16:33N 48°31' W 122°36'0 0.0
2015-Jun-29 15:32N 48°31' W 122°36'0 0.0
2015-Jun-29 14:32N 48°31' W 122°36'0 0.0
2015-Jun-29 13:32N 48°31' W 122°36'0 0.0
2015-Jun-29 12:26N 48°31' W 122°36'0 0.0
2015-Jun-29 11:32N 48°31' W 122°36'0 0.0
2015-Jun-29 10:32N 48°31' W 122°36'0 0.0
2015-Jun-29 09:14N 48°31' W 122°36'0 0.0
2015-Jun-29 08:32N 48°31' W 122°36'0 0.0
2015-Jun-29 07:32N 48°31' W 122°36'0 0.0
2015-Jun-29 06:32N 48°31' W 122°36'0 0.0
2015-Jun-29 05:32N 48°31' W 122°36'0 0.0
2015-Jun-29 04:32N 48°31' W 122°36'0 0.0
2015-Jun-29 03:32N 48°31' W 122°36'0 0.0
2015-Jun-29 02:32N 48°31' W 122°36'0 0.0
2015-Jun-29 01:32N 48°31' W 122°36'0 0.0
2015-Jun-29 00:32N 48°31' W 122°36'0 0.0
2015-Jun-28 23:32N 48°31' W 122°36'0 0.0
2015-Jun-28 22:32N 48°31' W 122°36'0 0.0
2015-Jun-28 21:32N 48°31' W 122°36'0 0.0
2015-Jun-28 20:26N 48°31' W 122°36'0 0.0
2015-Jun-28 19:32N 48°31' W 122°36'0 0.0
2015-Jun-28 18:32N 48°31' W 122°36'0 0.0
2015-Jun-28 17:32N 48°31' W 122°36'0 0.0
2015-Jun-28 16:32N 48°31' W 122°36'0 0.0
2015-Jun-28 15:32N 48°31' W 122°36'0 0.0
2015-Jun-28 14:32N 48°31' W 122°36'0 0.0
2015-Jun-28 13:32N 48°31' W 122°36'0 0.0
2015-Jun-28 12:32N 48°31' W 122°36'0 0.0
2015-Jun-28 11:32N 48°31' W 122°36'0 0.0
2015-Jun-28 10:32N 48°31' W 122°36'0 0.0
2015-Jun-28 09:32N 48°31' W 122°36'0 0.0
2015-Jun-28 08:31N 48°31' W 122°36'0 0.0
2015-Jun-28 07:31N 48°31' W 122°36'0 0.0
2015-Jun-28 06:25N 48°31' W 122°36'0 0.0
2015-Jun-28 05:31N 48°31' W 122°36'0 0.0
2015-Jun-28 04:31N 48°31' W 122°36'0 0.0
2015-Jun-28 03:25N 48°31' W 122°36'0 0.0
2015-Jun-28 02:25N 48°31' W 122°36'0 0.0
2015-Jun-28 01:31N 48°31' W 122°36'0 0.0
2015-Jun-28 00:31N 48°31' W 122°36'0 0.0
2015-Jun-27 23:25N 48°31' W 122°36'0 0.0
2015-Jun-27 22:31N 48°31' W 122°36'  
Track history (hours):
 
Tides and Currents Weather Stations Pressure Air Temp Water Temp Dewpoint Dewpoint Depression Visibility Wind Speed Wind Dir Waves Ship Positions

San Juan Enterprise

Owner: SAN JUAN MARINE FREIGHT CO LLC, ANACORTES, WA. More information available from US FCC via Universal Licensing System and Coast Guard Vessel Documentation Center.

Last reported at 2015-Jul-07 21:33 UTC. Time now 2015-Jul-07 22:00 UTC.
Position N 48°31' W 122°41'.

Length 30 m.

MMSI: 367313160.

Date/timePositionNaut miles runAvg speedWind from/ knotsBaromVisibWave heightAir tempDewpointWater temp
2015-Jul-07 21:33N 48°31' W 122°41'3 3.3
2015-Jul-07 20:33N 48°31' W 122°37'4 3.5
2015-Jul-07 19:33N 48°33' W 122°41'0 0.0
2015-Jul-07 18:33N 48°33' W 122°41'3 3.4
2015-Jul-07 17:33N 48°31' W 122°37'0 0.0
2015-Jul-07 16:33N 48°31' W 122°37'0 0.4
2015-Jul-07 15:33N 48°31' W 122°36'0 0.0
2015-Jul-07 14:33N 48°31' W 122°36'0 0.0
2015-Jul-07 13:33N 48°31' W 122°36'0 0.0
2015-Jul-07 12:33N 48°31' W 122°36'0 0.0
2015-Jul-07 11:33N 48°31' W 122°36'0 0.0
2015-Jul-07 10:33N 48°31' W 122°36'0 0.0
2015-Jul-07 09:33N 48°31' W 122°36'0 0.0
2015-Jul-07 08:33N 48°31' W 122°36'0 0.0
2015-Jul-07 07:33N 48°31' W 122°36'0 0.0
2015-Jul-07 06:33N 48°31' W 122°36'0 0.0
2015-Jul-07 05:33N 48°31' W 122°36'0 0.0
2015-Jul-07 04:33N 48°31' W 122°36'0 0.0
2015-Jul-07 03:33N 48°31' W 122°36'0 0.0
2015-Jul-07 02:33N 48°31' W 122°36'0 0.0
2015-Jul-07 01:33N 48°31' W 122°36'0 0.0
2015-Jul-07 00:33N 48°31' W 122°36'0 0.0
2015-Jul-06 23:33N 48°31' W 122°36'0 0.0
2015-Jul-06 22:33N 48°31' W 122°36'0 0.0
2015-Jul-06 21:33N 48°31' W 122°36'0 0.0
2015-Jul-06 20:33N 48°31' W 122°36'0 0.0
2015-Jul-06 19:33N 48°31' W 122°36'0 0.0
2015-Jul-06 18:33N 48°31' W 122°36'0 0.0
2015-Jul-06 17:33N 48°31' W 122°36'0 0.0
2015-Jul-06 16:33N 48°31' W 122°36'0 0.0
2015-Jul-06 15:33N 48°31' W 122°36'0 0.0
2015-Jul-06 14:33N 48°31' W 122°36'0 0.0
2015-Jul-06 13:33N 48°31' W 122°36'0 0.0
2015-Jul-06 12:33N 48°31' W 122°36'0 0.0
2015-Jul-06 11:33N 48°31' W 122°36'0 0.0
2015-Jul-06 10:33N 48°31' W 122°36'0 0.0
2015-Jul-06 09:33N 48°31' W 122°36'0 0.0
2015-Jul-06 08:33N 48°31' W 122°36'0 0.0
2015-Jul-06 07:33N 48°31' W 122°36'0 0.0
2015-Jul-06 06:33N 48°31' W 122°36'0 0.0
2015-Jul-06 05:33N 48°31' W 122°36'0 0.0
2015-Jul-06 04:33N 48°31' W 122°36'0 0.0
2015-Jul-06 03:33N 48°31' W 122°36'0 0.0
2015-Jul-06 02:32N 48°31' W 122°36'0 0.0
2015-Jul-06 01:33N 48°31' W 122°36'0 0.0
2015-Jul-06 00:33N 48°31' W 122°36'0 0.0
2015-Jul-05 23:33N 48°31' W 122°36'0 0.0
2015-Jul-05 22:33N 48°31' W 122°36'0 0.0
2015-Jul-05 21:33N 48°31' W 122°36'0 0.0
2015-Jul-05 20:33N 48°31' W 122°36'0 0.0
2015-Jul-05 19:33N 48°31' W 122°36'3 3.4
2015-Jul-05 18:33N 48°32' W 122°41'6 6.1
2015-Jul-05 17:33N 48°35' W 122°49'6 6.4
2015-Jul-05 16:33N 48°41' W 122°54'1 0.6
2015-Jul-05 15:21N 48°41' W 122°54'0 0.0
2015-Jul-05 14:30N 48°41' W 122°54'0 0.0
2015-Jul-05 13:30N 48°41' W 122°54'0 0.0
2015-Jul-05 12:33N 48°42' W 122°54'0 0.0
2015-Jul-05 11:27N 48°42' W 122°54'0 0.0
2015-Jul-05 10:27N 48°41' W 122°54'0 0.0
2015-Jul-05 09:30N 48°41' W 122°54'0 0.0
2015-Jul-05 08:33N 48°42' W 122°54'0 0.0
2015-Jul-05 07:33N 48°41' W 122°54'0 0.0
2015-Jul-05 06:33N 48°41' W 122°54'0 0.2
2015-Jul-05 05:33N 48°41' W 122°55'0 0.1
2015-Jul-05 04:34N 48°41' W 122°54'0 0.0
2015-Jul-05 03:33N 48°41' W 122°54'0 0.0
2015-Jul-05 02:33N 48°41' W 122°54'0 0.2
2015-Jul-05 01:33N 48°41' W 122°54'0 0.0
2015-Jul-05 00:33N 48°41' W 122°54'0 0.0
2015-Jul-04 23:32N 48°42' W 122°54'0 0.0
2015-Jul-04 22:17N 48°42' W 122°54'0 0.0
2015-Jul-04 21:30N 48°41' W 122°54'0 0.0
2015-Jul-04 20:08N 48°41' W 122°54'0 0.0
2015-Jul-04 19:22N 48°41' W 122°54'0 0.0
2015-Jul-04 18:31N 48°41' W 122°54'0 0.0
2015-Jul-04 17:32N 48°42' W 122°54'3 3.4
2015-Jul-04 16:33N 48°38' W 122°53'5 5.0
2015-Jul-04 15:32N 48°36' W 122°60'1 0.9
2015-Jul-04 14:31N 48°37' W 123°00'0 0.0
2015-Jul-04 13:31N 48°37' W 123°00'0 0.0
2015-Jul-04 12:31N 48°37' W 123°00'0 0.0
2015-Jul-04 11:31N 48°37' W 123°00'0 0.0
2015-Jul-04 10:31N 48°37' W 123°00'0 0.0
2015-Jul-04 09:31N 48°37' W 123°00'0 0.0
2015-Jul-04 08:31N 48°37' W 123°00'0 0.0
2015-Jul-04 07:33N 48°37' W 123°00'0 0.0
2015-Jul-04 06:33N 48°37' W 123°00'0 0.3
2015-Jul-04 05:33N 48°37' W 123°00'0 0.1
2015-Jul-04 04:33N 48°37' W 123°00'0 0.0
2015-Jul-04 03:32N 48°37' W 123°00'0 0.0
2015-Jul-04 02:30N 48°37' W 123°00'0 0.0
2015-Jul-04 01:31N 48°37' W 123°00'0 0.0
2015-Jul-04 00:33N 48°37' W 123°00'0 0.1
2015-Jul-03 23:31N 48°37' W 123°00'6 6.6
2015-Jul-03 22:33N 48°36' W 122°51'7 6.5
2015-Jul-03 21:33N 48°32' W 122°42'4 4.2
2015-Jul-03 20:33N 48°31' W 122°36'1 0.6
2015-Jul-03 19:33N 48°31' W 122°36'1 0.6
2015-Jul-03 18:29N 48°31' W 122°36'0 0.0
2015-Jul-03 17:23N 48°31' W 122°36'0 0.0
2015-Jul-03 16:23N 48°31' W 122°36'0 0.0
2015-Jul-03 15:29N 48°31' W 122°36'0 0.0
2015-Jul-03 14:29N 48°31' W 122°36'0 0.0
2015-Jul-03 13:29N 48°31' W 122°36'0 0.0
2015-Jul-03 12:29N 48°31' W 122°36'0 0.0
2015-Jul-03 11:29N 48°31' W 122°36'0 0.0
2015-Jul-03 10:29N 48°31' W 122°36'0 0.0
2015-Jul-03 09:29N 48°31' W 122°36'0 0.0
2015-Jul-03 08:29N 48°31' W 122°36'0 0.0
2015-Jul-03 07:17N 48°31' W 122°36'0 0.0
2015-Jul-03 06:29N 48°31' W 122°36'0 0.0
2015-Jul-03 05:29N 48°31' W 122°36'0 0.0
2015-Jul-03 04:17N 48°31' W 122°36'0 0.0
2015-Jul-03 03:23N 48°31' W 122°36'0 0.0
2015-Jul-03 02:23N 48°31' W 122°36'0 0.0
2015-Jul-03 01:17N 48°31' W 122°36'0 0.0
2015-Jul-03 00:29N 48°31' W 122°36'6 6.3
2015-Jul-02 23:33N 48°33' W 122°45'4 3.6
2015-Jul-02 22:33N 48°35' W 122°49'2 2.0
2015-Jul-02 21:33N 48°35' W 122°46'7 7.3
2015-Jul-02 20:33N 48°31' W 122°36'4 3.6
2015-Jul-02 19:32N 48°33' W 122°41'0 0.0
2015-Jul-02 18:33N 48°33' W 122°41'3 3.4
2015-Jul-02 17:33N 48°31' W 122°37'0 0.0
2015-Jul-02 16:33N 48°31' W 122°37'0 0.3
2015-Jul-02 15:30N 48°31' W 122°36'0 0.0
2015-Jul-02 14:24N 48°31' W 122°36'0 0.0
2015-Jul-02 13:24N 48°31' W 122°36'0 0.0
2015-Jul-02 12:30N 48°31' W 122°36'0 0.0
2015-Jul-02 11:30N 48°31' W 122°36'0 0.0
2015-Jul-02 10:18N 48°31' W 122°36'0 0.0
2015-Jul-02 09:24N 48°31' W 122°36'0 0.0
2015-Jul-02 08:30N 48°31' W 122°36'0 0.0
2015-Jul-02 07:30N 48°31' W 122°36'0 0.0
2015-Jul-02 06:30N 48°31' W 122°36'0 0.0
2015-Jul-02 05:30N 48°31' W 122°36'0 0.0
2015-Jul-02 04:29N 48°31' W 122°36'0 0.0
2015-Jul-02 03:29N 48°31' W 122°36'0 0.0
2015-Jul-02 02:30N 48°31' W 122°36'0 0.0
2015-Jul-02 01:23N 48°31' W 122°36'0 0.0
2015-Jul-02 00:33N 48°31' W 122°36'7 6.6
2015-Jul-01 23:33N 48°34' W 122°46'3 2.7
2015-Jul-01 22:33N 48°35' W 122°49'0 0.0
2015-Jul-01 21:33N 48°35' W 122°49'5 5.3
2015-Jul-01 20:33N 48°32' W 122°42'4 4.1
2015-Jul-01 19:33N 48°31' W 122°36'0 0.0
2015-Jul-01 18:32N 48°31' W 122°36'0 0.0
2015-Jul-01 17:32N 48°31' W 122°36'0 0.0
2015-Jul-01 16:32N 48°31' W 122°36'0 0.0
2015-Jul-01 15:32N 48°31' W 122°36'0 0.0
2015-Jul-01 14:32N 48°31' W 122°36'0 0.0
2015-Jul-01 13:32N 48°31' W 122°36'0 0.0
2015-Jul-01 12:32N 48°31' W 122°36'0 0.0
2015-Jul-01 11:32N 48°31' W 122°36'0 0.0
2015-Jul-01 10:32N 48°31' W 122°36'0 0.0
2015-Jul-01 09:32N 48°31' W 122°36'0 0.0
2015-Jul-01 08:32N 48°31' W 122°36'0 0.0
2015-Jul-01 07:32N 48°31' W 122°36'0 0.0
2015-Jul-01 06:17N 48°31' W 122°36'0 0.0
2015-Jul-01 05:32N 48°31' W 122°36'0 0.0
2015-Jul-01 04:32N 48°31' W 122°36'0 0.0
2015-Jul-01 03:32N 48°31' W 122°36'0 0.0
2015-Jul-01 02:32N 48°31' W 122°36'0 0.0
2015-Jul-01 01:32N 48°31' W 122°36'0 0.0
2015-Jul-01 00:32N 48°31' W 122°36'0 0.0
2015-Jun-30 23:26N 48°31' W 122°36'0 0.0
2015-Jun-30 22:32N 48°31' W 122°36'0 0.0
2015-Jun-30 21:32N 48°31' W 122°36'0 0.0
2015-Jun-30 20:33N 48°31' W 122°36'8 7.8
2015-Jun-30 19:33N 48°32' W 122°48'7 7.3
2015-Jun-30 18:33N 48°32' W 122°59'1 0.9
2015-Jun-30 17:33N 48°32' W 122°60'0 0.0
2015-Jun-30 17:14N 48°32' W 122°60'3 5.0
2015-Jun-30 16:33N 48°33' W 122°55'7 6.9
2015-Jun-30 15:33N 48°32' W 122°45'6 6.0
2015-Jun-30 14:33N 48°31' W 122°36'0 0.0
2015-Jun-30 13:32N 48°31' W 122°36'0 0.0
2015-Jun-30 12:32N 48°31' W 122°36'0 0.0
2015-Jun-30 11:32N 48°31' W 122°36'0 0.0
2015-Jun-30 10:32N 48°31' W 122°36'0 0.0
2015-Jun-30 09:32N 48°31' W 122°36'0 0.0
2015-Jun-30 08:32N 48°31' W 122°36'0 0.0
2015-Jun-30 07:32N 48°31' W 122°36'0 0.0
2015-Jun-30 06:29N 48°31' W 122°36'0 0.0
2015-Jun-30 05:32N 48°31' W 122°36'0 0.0
2015-Jun-30 04:32N 48°31' W 122°36'0 0.0
2015-Jun-30 03:32N 48°31' W 122°36'0 0.0
2015-Jun-30 02:26N 48°31' W 122°36'0 0.0
2015-Jun-30 01:32N 48°31' W 122°36'0 0.0
2015-Jun-30 00:33N 48°31' W 122°36'6 5.7
2015-Jun-29 23:33N 48°33' W 122°45'4 3.6
2015-Jun-29 22:33N 48°35' W 122°49'0 0.0
2015-Jun-29 22:09N 48°35' W 122°49'1 1.8
2015-Jun-29 21:33N 48°36' W 122°49'2 8.9
2015-Jun-29 21:22N 48°35' W 122°50'1 0.7
2015-Jun-29 20:33N 48°34' W 122°50'2 1.9
2015-Jun-29 19:33N 48°36' W 122°49'0 9.7
2015-Jun-29 19:31N 48°36' W 122°49'0 0.4
2015-Jun-29 18:33N 48°35' W 122°49'1 3.6
2015-Jun-29 18:12N 48°36' W 122°48'6 9.8
2015-Jun-29 17:33N 48°32' W 122°40'2 2.5
2015-Jun-29 16:36N 48°31' W 122°37'0 3.9
2015-Jun-29 16:33N 48°31' W 122°36'0 0.0
2015-Jun-29 15:32N 48°31' W 122°36'0 0.0
2015-Jun-29 14:32N 48°31' W 122°36'0 0.0
2015-Jun-29 13:32N 48°31' W 122°36'0 0.0
2015-Jun-29 12:26N 48°31' W 122°36'0 0.0
2015-Jun-29 11:32N 48°31' W 122°36'0 0.0
2015-Jun-29 10:32N 48°31' W 122°36'0 0.0
2015-Jun-29 09:14N 48°31' W 122°36'0 0.0
2015-Jun-29 08:32N 48°31' W 122°36'0 0.0
2015-Jun-29 07:32N 48°31' W 122°36'0 0.0
2015-Jun-29 06:32N 48°31' W 122°36'0 0.0
2015-Jun-29 05:32N 48°31' W 122°36'0 0.0
2015-Jun-29 04:32N 48°31' W 122°36'0 0.0
2015-Jun-29 03:32N 48°31' W 122°36'0 0.0
2015-Jun-29 02:32N 48°31' W 122°36'0 0.0
2015-Jun-29 01:32N 48°31' W 122°36'0 0.0
2015-Jun-29 00:32N 48°31' W 122°36'0 0.0
2015-Jun-28 23:32N 48°31' W 122°36'0 0.0
2015-Jun-28 22:32N 48°31' W 122°36'0 0.0
2015-Jun-28 21:32N 48°31' W 122°36'0 0.0
2015-Jun-28 20:26N 48°31' W 122°36'0 0.0
2015-Jun-28 19:32N 48°31' W 122°36'0 0.0
2015-Jun-28 18:32N 48°31' W 122°36'0 0.0
2015-Jun-28 17:32N 48°31' W 122°36'0 0.0
2015-Jun-28 16:32N 48°31' W 122°36'0 0.0
2015-Jun-28 15:32N 48°31' W 122°36'0 0.0
2015-Jun-28 14:32N 48°31' W 122°36'0 0.0
2015-Jun-28 13:32N 48°31' W 122°36'0 0.0
2015-Jun-28 12:32N 48°31' W 122°36'0 0.0
2015-Jun-28 11:32N 48°31' W 122°36'0 0.0
2015-Jun-28 10:32N 48°31' W 122°36'0 0.0
2015-Jun-28 09:32N 48°31' W 122°36'0 0.0
2015-Jun-28 08:31N 48°31' W 122°36'0 0.0
2015-Jun-28 07:31N 48°31' W 122°36'0 0.0
2015-Jun-28 06:25N 48°31' W 122°36'0 0.0
2015-Jun-28 05:31N 48°31' W 122°36'0 0.0
2015-Jun-28 04:31N 48°31' W 122°36'0 0.0
2015-Jun-28 03:25N 48°31' W 122°36'0 0.0
2015-Jun-28 02:25N 48°31' W 122°36'0 0.0
2015-Jun-28 01:31N 48°31' W 122°36'0 0.0
2015-Jun-28 00:31N 48°31' W 122°36'0 0.0
2015-Jun-27 23:25N 48°31' W 122°36'0 0.0
2015-Jun-27 22:31N 48°31' W 122°36'  

Dump ship's entire track history